Terminal Aerodrome Forecast
Issued by NWS

Current Version | Previous Version | Text Only | Print | Product List | Glossary On
Versions: 1 2 3 4 5 6 7 8 9 10 11 12 13
000
FTUS45 KABQ 271136
TAFAEG
TAF
KAEG 271136Z 2712/2812 VRB03KT P6SM BKN120
     FM271800 22006KT P6SM BKN080
     FM272000 21009KT P6SM VCTS OVC060CB
     FM272300 27011KT P6SM VCSH OVC050
     FM280300 32006KT P6SM BKN090=

USA.gov is the U.S. government's official web portal to all federal, state and local government web resources and services.